createdAt,value
2023-05-24T00:00:22.475Z,34.90
2023-05-24T00:02:49.960Z,24.50
2023-05-24T00:05:19.152Z,29.60
2023-05-24T00:07:46.310Z,32.65
2023-05-24T00:10:13.729Z,45.45
2023-05-24T00:12:40.987Z,21.13
2023-05-24T00:15:09.259Z,31.92
2023-05-24T00:17:41.711Z,23.30
2023-05-24T00:20:14.600Z,22.15
2023-05-24T00:22:42.664Z,34.17
2023-05-24T00:25:10.105Z,20.17
2023-05-24T00:27:37.860Z,23.65
2023-05-24T00:30:06.821Z,22.20
2023-05-24T00:32:34.470Z,23.95
2023-05-24T00:35:01.772Z,24.85
2023-05-24T00:37:29.788Z,23.83
2023-05-24T00:39:57.241Z,26.00
2023-05-24T00:42:24.653Z,27.58
2023-05-24T00:44:53.538Z,26.45
2023-05-24T00:47:21.051Z,24.35
2023-05-24T00:49:48.309Z,31.20
2023-05-24T00:52:15.836Z,28.17
2023-05-24T00:54:44.417Z,32.03
2023-05-24T00:57:14.263Z,31.13
2023-05-24T00:59:41.769Z,30.23
2023-05-24T01:02:09.010Z,17.90
2023-05-24T01:04:38.188Z,21.25
2023-05-24T01:07:30.269Z,25.83
2023-05-24T01:10:25.672Z,25.85
2023-05-24T01:13:14.061Z,31.50
2023-05-24T01:16:11.493Z,24.30
2023-05-24T01:19:02.487Z,31.17
2023-05-24T01:22:00.106Z,37.85
2023-05-24T01:24:42.611Z,39.42
2023-05-24T01:27:13.486Z,28.38
2023-05-24T01:29:41.881Z,29.00
2023-05-24T01:32:10.180Z,22.73
2023-05-24T01:34:37.430Z,25.13
2023-05-24T01:37:04.557Z,22.02
2023-05-24T01:39:31.945Z,32.05
2023-05-24T01:42:06.595Z,24.33
2023-05-24T01:44:59.280Z,22.10
2023-05-24T01:47:49.139Z,23.10
2023-05-24T01:50:58.871Z,28.55
2023-05-24T01:53:33.157Z,28.27
2023-05-24T01:56:03.615Z,25.33
2023-05-24T01:58:31.716Z,32.22
2023-05-24T02:00:59.968Z,29.85
2023-05-24T02:03:27.416Z,25.60
2023-05-24T02:05:54.547Z,33.28
2023-05-24T02:08:22.293Z,25.30
2023-05-24T02:10:49.478Z,23.83
2023-05-24T02:13:18.353Z,18.83
2023-05-24T02:15:46.021Z,18.27
2023-05-24T02:18:13.309Z,22.67
2023-05-24T02:20:41.196Z,19.85
2023-05-24T02:23:08.616Z,16.05
2023-05-24T02:25:36.135Z,43.83
2023-05-24T02:28:03.574Z,25.95
2023-05-24T02:30:30.916Z,24.52
2023-05-24T02:32:58.510Z,26.80
2023-05-24T02:35:26.179Z,33.28
2023-05-24T02:37:53.216Z,33.85
2023-05-24T02:40:20.644Z,30.35
2023-05-24T02:42:47.823Z,19.23
2023-05-24T02:45:14.999Z,33.22
2023-05-24T02:47:42.289Z,23.95
2023-05-24T02:50:10.274Z,32.83
2023-05-24T02:52:37.765Z,33.72
2023-05-24T02:55:08.959Z,25.05
2023-05-24T02:57:38.119Z,33.80
2023-05-24T03:00:11.190Z,26.58
2023-05-24T03:02:44.052Z,35.08
2023-05-24T03:05:11.831Z,23.13
2023-05-24T03:07:39.207Z,36.53
2023-05-24T03:10:07.159Z,29.35
2023-05-24T03:12:34.757Z,45.08
2023-05-24T03:15:02.221Z,22.25
2023-05-24T03:17:29.655Z,26.92
2023-05-24T03:19:56.924Z,22.58
2023-05-24T03:22:24.128Z,30.08
2023-05-24T03:24:51.737Z,35.22
2023-05-24T03:27:19.234Z,33.78
2023-05-24T03:29:46.493Z,31.13
2023-05-24T03:32:13.802Z,25.23
2023-05-24T03:34:41.324Z,44.88
2023-05-24T03:37:08.801Z,23.65
2023-05-24T03:39:36.023Z,34.63
2023-05-24T03:42:03.500Z,33.55
2023-05-24T03:44:30.897Z,21.45
2023-05-24T03:46:58.096Z,22.77
2023-05-24T03:49:25.307Z,23.27
2023-05-24T03:51:52.664Z,25.30
2023-05-24T03:54:19.994Z,25.33
2023-05-24T03:56:47.301Z,27.58
2023-05-24T03:59:14.510Z,29.42
2023-05-24T04:01:41.699Z,31.98
2023-05-24T04:04:09.053Z,27.38
2023-05-24T04:06:37.207Z,44.03
2023-05-24T04:09:06.132Z,49.42
2023-05-24T04:11:33.481Z,19.40
2023-05-24T04:14:00.888Z,21.33
2023-05-24T04:16:28.778Z,31.83
2023-05-24T04:18:56.827Z,24.23
2023-05-24T04:21:24.515Z,18.17
2023-05-24T04:23:51.773Z,29.40
2023-05-24T04:26:21.572Z,30.55
2023-05-24T04:28:48.830Z,23.77
2023-05-24T04:31:16.883Z,23.30
2023-05-24T04:33:44.093Z,21.95
2023-05-24T04:36:12.516Z,33.47
2023-05-24T04:38:41.174Z,27.67
2023-05-24T04:41:08.428Z,21.67
2023-05-24T04:43:35.737Z,32.63
2023-05-24T04:46:03.118Z,29.00
2023-05-24T04:48:30.402Z,25.48
2023-05-24T04:50:58.769Z,25.92
2023-05-24T04:53:26.178Z,26.83
2023-05-24T04:55:54.088Z,33.55
2023-05-24T04:58:21.290Z,23.83
2023-05-24T05:00:48.536Z,23.90
2023-05-24T05:03:16.234Z,26.38
2023-05-24T05:05:44.713Z,24.20
2023-05-24T05:08:11.948Z,27.92
2023-05-24T05:10:39.107Z,24.48
2023-05-24T05:13:06.253Z,33.85
2023-05-24T05:15:33.636Z,23.70
2023-05-24T05:18:01.126Z,34.90
2023-05-24T05:20:28.481Z,30.30
2023-05-24T05:22:55.831Z,26.25
2023-05-24T05:25:23.185Z,27.58
2023-05-24T05:27:50.364Z,23.63
2023-05-24T05:30:17.779Z,29.27
2023-05-24T05:32:45.338Z,37.67
2023-05-24T05:35:12.626Z,25.67
2023-05-24T05:37:39.851Z,25.65
2023-05-24T05:40:07.700Z,53.85
2023-05-24T05:42:34.809Z,25.02
2023-05-24T05:45:01.946Z,21.92
2023-05-24T05:47:29.188Z,25.92
2023-05-24T05:49:56.407Z,25.10
2023-05-24T05:52:23.717Z,32.72
2023-05-24T05:54:51.335Z,21.70
2023-05-24T05:57:24.458Z,20.50
2023-05-24T05:59:52.182Z,26.40
2023-05-24T06:02:19.877Z,28.15
2023-05-24T06:04:47.690Z,27.55
2023-05-24T06:07:14.992Z,24.52
2023-05-24T06:09:42.886Z,31.55
2023-05-24T06:12:10.238Z,31.17
2023-05-24T06:14:38.713Z,27.98
2023-05-24T06:17:06.446Z,22.13
2023-05-24T06:19:33.705Z,21.45
2023-05-24T06:22:01.569Z,26.63
2023-05-24T06:24:28.985Z,31.65
2023-05-24T06:26:56.215Z,36.72
2023-05-24T06:29:25.481Z,33.95
2023-05-24T06:31:53.012Z,27.05
2023-05-24T06:34:23.379Z,22.02
2023-05-24T06:36:51.850Z,30.35
2023-05-24T06:39:19.483Z,27.65
2023-05-24T06:41:47.468Z,15.60
2023-05-24T06:44:14.873Z,36.60
2023-05-24T06:46:42.794Z,27.35
2023-05-24T06:49:10.007Z,32.97
2023-05-24T06:51:38.360Z,23.35
2023-05-24T06:54:05.982Z,31.88
2023-05-24T06:56:33.418Z,26.08
2023-05-24T06:59:00.975Z,34.78
2023-05-24T07:01:29.559Z,30.98
2023-05-24T07:03:57.247Z,24.77
2023-05-24T07:06:25.327Z,37.45
2023-05-24T07:08:52.508Z,29.52
2023-05-24T07:11:19.739Z,28.17
2023-05-24T07:13:46.987Z,30.92
2023-05-24T07:16:14.170Z,35.63
2023-05-24T07:18:42.040Z,33.63
2023-05-24T07:21:09.416Z,34.45
2023-05-24T07:23:37.470Z,33.22
2023-05-24T07:26:05.477Z,30.08
2023-05-24T07:28:32.927Z,44.90
2023-05-24T07:31:00.234Z,26.98
2023-05-24T07:33:27.638Z,24.65
2023-05-24T07:35:54.911Z,30.33
2023-05-24T07:38:22.182Z,36.65
2023-05-24T07:40:49.319Z,30.25
2023-05-24T07:43:16.477Z,22.13
2023-05-24T07:45:43.954Z,34.92
2023-05-24T07:48:11.725Z,34.08
2023-05-24T07:50:39.244Z,30.27
2023-05-24T07:53:07.510Z,34.05
2023-05-24T07:55:34.768Z,38.78
2023-05-24T07:58:01.950Z,29.38
2023-05-24T08:00:30.177Z,36.00
2023-05-24T08:02:57.685Z,32.40
2023-05-24T08:05:24.991Z,39.20
2023-05-24T08:07:53.680Z,25.33
2023-05-24T08:10:21.067Z,30.38
2023-05-24T08:12:50.317Z,29.38
2023-05-24T08:15:17.521Z,28.67
2023-05-24T08:17:44.950Z,22.60
2023-05-24T08:20:17.143Z,34.88
2023-05-24T08:22:44.766Z,20.80
2023-05-24T08:25:12.164Z,22.15
2023-05-24T08:27:39.433Z,29.85
2023-05-24T08:30:08.570Z,31.20
2023-05-24T08:32:36.682Z,30.35
2023-05-24T08:35:19.242Z,30.85
2023-05-24T08:37:48.295Z,25.08
2023-05-24T08:40:15.611Z,18.75
2023-05-24T08:42:43.188Z,27.88
2023-05-24T08:45:15.414Z,27.70
2023-05-24T08:47:43.064Z,26.15
2023-05-24T08:50:12.979Z,23.67
2023-05-24T08:52:42.411Z,38.55
2023-05-24T08:55:11.232Z,32.25
2023-05-24T08:57:41.603Z,21.00
2023-05-24T09:00:13.099Z,30.45
2023-05-24T09:02:43.063Z,23.30
2023-05-24T09:05:17.240Z,31.60
2023-05-24T09:07:46.236Z,38.55
2023-05-24T09:10:13.643Z,32.38
2023-05-24T09:12:45.834Z,23.63
2023-05-24T09:15:13.090Z,32.00
2023-05-24T09:17:40.989Z,27.52
2023-05-24T09:20:11.395Z,25.65
2023-05-24T09:22:42.087Z,22.55
2023-05-24T09:25:11.604Z,30.23
2023-05-24T09:27:39.472Z,23.38
2023-05-24T09:30:13.099Z,34.13
2023-05-24T09:32:41.491Z,20.77
2023-05-24T09:35:10.787Z,25.95
2023-05-24T09:37:44.646Z,19.90
2023-05-24T09:40:22.999Z,22.17
2023-05-24T09:43:02.448Z,18.80
2023-05-24T09:45:29.568Z,29.52
2023-05-24T09:47:56.981Z,33.17
2023-05-24T09:50:24.116Z,20.02
2023-05-24T09:52:52.126Z,26.30
2023-05-24T09:55:20.794Z,23.63
2023-05-24T09:57:55.533Z,20.83
2023-05-24T10:00:24.413Z,33.65
2023-05-24T10:03:07.050Z,20.65
2023-05-24T10:05:35.514Z,23.73
2023-05-24T10:08:05.320Z,22.83
2023-05-24T10:10:33.990Z,17.75
2023-05-24T10:13:02.830Z,13.00
2023-05-24T10:15:30.970Z,12.10
2023-05-24T10:18:00.413Z,21.25
2023-05-24T10:20:28.701Z,14.82
2023-05-24T10:23:02.201Z,20.95
2023-05-24T10:25:31.140Z,26.27
2023-05-24T10:28:01.813Z,17.23
2023-05-24T10:30:34.540Z,14.90
2023-05-24T10:33:05.318Z,16.10
2023-05-24T10:35:34.185Z,20.75
2023-05-24T10:38:09.352Z,13.25
2023-05-24T10:40:44.491Z,17.05
2023-05-24T10:43:12.068Z,16.00
2023-05-24T10:45:42.446Z,15.20
2023-05-24T10:48:29.530Z,19.52
2023-05-24T10:50:57.677Z,19.33
2023-05-24T10:53:27.897Z,15.90
2023-05-24T10:55:57.966Z,15.55
2023-05-24T10:58:48.658Z,16.98
2023-05-24T11:01:36.520Z,16.92
2023-05-24T11:04:12.295Z,11.98
2023-05-24T11:06:46.077Z,17.15
2023-05-24T11:09:13.325Z,13.77
2023-05-24T11:11:45.365Z,17.10
2023-05-24T11:14:13.963Z,16.75
2023-05-24T11:16:41.758Z,12.20
2023-05-24T11:19:34.536Z,15.20
2023-05-24T11:22:05.065Z,14.63
2023-05-24T11:24:33.869Z,12.20
2023-05-24T11:27:02.840Z,19.05
2023-05-24T11:29:30.716Z,13.65
2023-05-24T11:32:08.312Z,15.20
2023-05-24T11:34:35.773Z,12.43
2023-05-24T11:37:06.903Z,23.70
2023-05-24T11:39:38.514Z,14.18
2023-05-24T11:42:06.867Z,13.40
2023-05-24T11:44:35.594Z,14.82
2023-05-24T11:47:03.700Z,20.88
2023-05-24T11:49:31.398Z,24.38
2023-05-24T11:51:59.681Z,11.98
2023-05-24T11:54:32.989Z,12.88
2023-05-24T11:57:00.603Z,13.07
2023-05-24T11:59:29.562Z,12.88
2023-05-24T12:02:06.005Z,10.77
2023-05-24T12:04:34.785Z,13.25
2023-05-24T12:07:02.438Z,19.50
2023-05-24T12:09:29.867Z,13.55
2023-05-24T12:11:58.922Z,14.27
2023-05-24T12:14:33.597Z,23.25
2023-05-24T12:17:01.511Z,16.23
2023-05-24T12:19:36.982Z,8.00
2023-05-24T12:22:06.828Z,8.55
2023-05-24T12:24:34.859Z,7.45
2023-05-24T12:27:07.114Z,15.68
2023-05-24T12:29:42.678Z,9.13
2023-05-24T12:32:14.364Z,17.48
2023-05-24T12:34:43.902Z,10.10
2023-05-24T12:37:15.481Z,14.05
2023-05-24T12:39:44.187Z,14.90
2023-05-24T12:42:15.117Z,15.05
2023-05-24T12:44:42.704Z,9.80
2023-05-24T12:47:10.401Z,23.77
2023-05-24T12:49:37.794Z,10.52
2023-05-24T12:52:05.344Z,6.90
2023-05-24T12:54:32.811Z,12.85
2023-05-24T12:57:00.596Z,11.45
2023-05-24T12:59:29.150Z,16.33
2023-05-24T13:01:56.974Z,19.02
2023-05-24T13:04:27.850Z,10.18
2023-05-24T13:06:55.804Z,19.15
2023-05-24T13:09:23.878Z,15.05
2023-05-24T13:11:52.822Z,14.25
2023-05-24T13:14:20.581Z,11.27
2023-05-24T13:16:48.567Z,13.43
2023-05-24T13:19:16.996Z,20.35
2023-05-24T13:21:44.291Z,12.75
2023-05-24T13:24:12.668Z,13.88
2023-05-24T13:26:39.749Z,15.63
2023-05-24T13:31:41.340Z,14.48
2023-05-24T13:34:10.617Z,9.48
2023-05-24T13:36:38.396Z,11.02
2023-05-24T13:39:15.533Z,11.25
2023-05-24T13:41:44.365Z,12.95
2023-05-24T13:44:13.451Z,9.10
2023-05-24T13:46:41.453Z,10.40
2023-05-24T13:49:09.675Z,10.82
2023-05-24T13:51:40.914Z,6.10
2023-05-24T13:54:08.452Z,7.65
2023-05-24T13:56:36.846Z,14.07
2023-05-24T13:59:04.966Z,9.50
2023-05-24T14:01:33.314Z,9.70
2023-05-24T14:04:02.968Z,12.25
2023-05-24T14:06:30.934Z,13.57
2023-05-24T14:08:58.768Z,8.32
2023-05-24T14:11:26.620Z,7.90
2023-05-24T14:16:24.737Z,8.90
2023-05-24T14:18:51.959Z,17.63
2023-05-24T14:21:19.908Z,6.72
2023-05-24T14:23:47.450Z,8.65
2023-05-24T14:26:14.586Z,11.27
2023-05-24T14:28:41.989Z,13.15
2023-05-24T14:31:09.191Z,6.55
2023-05-24T14:33:36.486Z,13.45
2023-05-24T14:36:03.705Z,11.82
2023-05-24T14:38:30.932Z,12.77
2023-05-24T14:40:58.980Z,5.13
2023-05-24T14:43:27.129Z,6.53
2023-05-24T14:45:54.490Z,9.63
2023-05-24T14:48:21.709Z,5.10
2023-05-24T14:50:49.121Z,14.35
2023-05-24T14:53:16.599Z,9.73
2023-05-24T14:55:44.509Z,5.15
2023-05-24T14:58:12.353Z,8.02
2023-05-24T15:00:41.245Z,7.47
2023-05-24T15:03:13.161Z,12.82
2023-05-24T15:05:41.793Z,5.80
2023-05-24T15:08:11.161Z,7.45
2023-05-24T15:10:44.019Z,9.38
2023-05-24T15:13:11.610Z,10.30
2023-05-24T15:15:38.938Z,7.72
2023-05-24T15:18:07.086Z,8.40
2023-05-24T15:20:35.652Z,7.03
2023-05-24T15:23:04.187Z,6.00
2023-05-24T15:25:31.352Z,10.60
2023-05-24T15:27:58.569Z,9.55
2023-05-24T15:30:25.792Z,8.75
2023-05-24T15:32:52.948Z,8.25
2023-05-24T15:35:20.244Z,6.68
2023-05-24T15:37:47.412Z,5.53
2023-05-24T15:40:15.371Z,9.02
2023-05-24T15:42:42.621Z,8.98
2023-05-24T15:45:10.433Z,5.45
2023-05-24T15:47:40.260Z,9.55
2023-05-24T15:50:09.117Z,7.78
2023-05-24T15:52:36.563Z,9.00
2023-05-24T15:55:04.133Z,7.47
2023-05-24T15:57:32.028Z,11.02
2023-05-24T15:59:59.414Z,11.93
2023-05-24T16:02:26.678Z,5.57
2023-05-24T16:04:54.478Z,7.95
2023-05-24T16:07:21.628Z,7.78
2023-05-24T16:09:51.173Z,6.55
2023-05-24T16:12:18.969Z,10.88
2023-05-24T16:14:46.724Z,6.57
2023-05-24T16:17:15.229Z,6.53
2023-05-24T16:19:42.689Z,7.95
2023-05-24T16:22:10.027Z,10.32
2023-05-24T16:24:37.353Z,9.95
2023-05-24T16:27:04.911Z,7.78
2023-05-24T16:29:32.409Z,6.95
2023-05-24T16:31:59.658Z,17.42
2023-05-24T16:34:27.263Z,6.38
2023-05-24T16:36:54.756Z,10.43
2023-05-24T16:39:24.069Z,11.88
2023-05-24T16:41:52.163Z,11.55
2023-05-24T16:44:19.466Z,9.32
2023-05-24T16:46:47.314Z,5.45
2023-05-24T16:49:14.503Z,7.70
2023-05-24T16:51:44.030Z,13.30
2023-05-24T16:54:12.438Z,4.28
2023-05-24T16:56:39.653Z,6.47
2023-05-24T16:59:07.221Z,8.65
2023-05-24T17:01:34.588Z,8.73
2023-05-24T17:04:01.874Z,8.38
2023-05-24T17:06:29.339Z,15.70
2023-05-24T17:08:56.430Z,12.57
2023-05-24T17:11:23.737Z,12.07
2023-05-24T17:13:52.541Z,21.45
2023-05-24T17:16:19.776Z,11.63
2023-05-24T17:18:47.079Z,13.93
2023-05-24T17:21:14.390Z,8.35
2023-05-24T17:23:41.879Z,15.15
2023-05-24T17:26:14.937Z,9.18
2023-05-24T17:28:44.929Z,13.07
2023-05-24T17:31:15.827Z,10.80
2023-05-24T17:33:43.141Z,7.88
2023-05-24T17:36:10.706Z,8.25
2023-05-24T17:38:38.299Z,9.52
2023-05-24T17:41:09.327Z,24.92
2023-05-24T17:43:39.241Z,5.28
2023-05-24T17:46:07.250Z,6.82
2023-05-24T17:51:06.626Z,11.85
2023-05-24T17:53:35.635Z,10.75
2023-05-24T17:56:04.227Z,8.77
2023-05-24T17:58:36.717Z,9.50
2023-05-24T18:01:05.821Z,7.22
2023-05-24T18:03:38.147Z,16.45
2023-05-24T18:06:19.296Z,10.05
2023-05-24T18:09:05.504Z,12.55
2023-05-24T18:11:33.359Z,11.38
2023-05-24T18:14:00.900Z,9.85
2023-05-24T18:16:28.210Z,19.80
2023-05-24T18:18:55.599Z,9.35
2023-05-24T18:21:22.823Z,8.95
2023-05-24T18:23:50.170Z,8.45
2023-05-24T18:26:17.425Z,13.70
2023-05-24T18:28:44.582Z,10.93
2023-05-24T18:31:11.913Z,12.98
2023-05-24T18:33:39.385Z,14.10
2023-05-24T18:36:07.111Z,13.98
2023-05-24T18:38:35.390Z,13.88
2023-05-24T18:41:06.091Z,20.73
2023-05-24T18:43:34.098Z,7.30
2023-05-24T18:46:01.995Z,10.80
2023-05-24T18:48:29.289Z,16.85
2023-05-24T18:50:56.709Z,21.05
2023-05-24T18:53:24.045Z,19.15
2023-05-24T18:55:51.177Z,26.70
2023-05-24T18:58:18.461Z,28.02
2023-05-24T19:00:46.113Z,15.77
2023-05-24T19:03:13.553Z,24.35
2023-05-24T19:05:43.565Z,25.48
2023-05-24T19:08:11.542Z,15.35
2023-05-24T19:10:38.908Z,11.40
2023-05-24T19:13:07.383Z,32.15
2023-05-24T19:15:37.546Z,18.25
2023-05-24T19:18:05.595Z,12.95
2023-05-24T19:20:32.945Z,20.50
2023-05-24T19:23:00.195Z,15.23
2023-05-24T19:25:27.475Z,15.48
2023-05-24T19:27:59.869Z,21.20
2023-05-24T19:30:28.097Z,19.42
2023-05-24T19:32:55.714Z,19.80
2023-05-24T19:35:23.239Z,16.67
2023-05-24T19:37:50.976Z,25.02
2023-05-24T19:40:18.486Z,17.13
2023-05-24T19:42:45.961Z,14.82
2023-05-24T19:45:13.897Z,14.48
2023-05-24T19:47:41.241Z,17.63
2023-05-24T19:50:09.027Z,20.35
2023-05-24T19:52:36.482Z,26.40
2023-05-24T19:55:04.148Z,28.55
2023-05-24T19:57:31.570Z,18.58
2023-05-24T19:59:59.163Z,26.90
2023-05-24T20:02:26.597Z,21.08
2023-05-24T20:04:54.056Z,19.13
2023-05-24T20:07:21.438Z,17.45
2023-05-24T20:09:50.109Z,16.52
2023-05-24T20:12:17.503Z,20.92
2023-05-24T20:14:44.832Z,15.82
2023-05-24T20:17:12.241Z,21.67
2023-05-24T20:19:39.591Z,21.10
2023-05-24T20:22:08.312Z,15.00
2023-05-24T20:24:35.691Z,33.08
2023-05-24T20:27:02.974Z,17.15
2023-05-24T20:29:30.379Z,20.13
2023-05-24T20:31:57.816Z,24.23
2023-05-24T20:34:25.249Z,27.42
2023-05-24T20:36:52.533Z,23.45
2023-05-24T20:39:19.837Z,19.25
2023-05-24T20:41:47.121Z,20.30
2023-05-24T20:44:14.977Z,22.05
2023-05-24T20:46:42.357Z,23.83
2023-05-24T20:49:09.687Z,19.27
2023-05-24T20:51:37.384Z,19.45
2023-05-24T20:54:06.444Z,22.58
2023-05-24T20:56:33.779Z,20.13
2023-05-24T20:59:02.438Z,12.88
2023-05-24T21:01:29.788Z,16.05
2023-05-24T21:04:22.596Z,28.70
2023-05-24T21:06:45.044Z,19.85
2023-05-24T21:09:12.505Z,18.65
2023-05-24T21:11:39.786Z,16.95
2023-05-24T21:14:11.024Z,19.98
2023-05-24T21:16:38.455Z,20.67
2023-05-24T21:19:05.658Z,24.40
2023-05-24T21:21:33.014Z,17.98
2023-05-24T21:24:00.242Z,19.45
2023-05-24T21:26:27.532Z,19.27
2023-05-24T21:28:54.940Z,19.83
2023-05-24T21:31:23.145Z,15.02
2023-05-24T21:33:50.594Z,18.13
2023-05-24T21:36:18.766Z,16.80
2023-05-24T21:38:46.214Z,14.77
2023-05-24T21:41:13.800Z,13.32
2023-05-24T21:43:42.974Z,22.25
2023-05-24T21:46:10.394Z,14.27
2023-05-24T21:48:37.650Z,20.48
2023-05-24T21:51:07.630Z,19.70
2023-05-24T21:53:35.498Z,16.23
2023-05-24T21:56:03.227Z,16.25
2023-05-24T21:58:30.501Z,17.13
2023-05-24T22:00:57.756Z,16.52
2023-05-24T22:03:25.110Z,23.50
2023-05-24T22:05:52.302Z,17.60
2023-05-24T22:08:19.830Z,14.63
2023-05-24T22:10:47.094Z,22.75
2023-05-24T22:13:14.570Z,18.80
2023-05-24T22:15:42.007Z,20.42
2023-05-24T22:18:09.345Z,19.73
2023-05-24T22:20:37.024Z,20.95
2023-05-24T22:23:04.587Z,24.30
2023-05-24T22:25:31.803Z,17.17
2023-05-24T22:27:58.972Z,23.20
2023-05-24T22:30:27.085Z,22.40
2023-05-24T22:32:54.300Z,19.88
2023-05-24T22:35:21.599Z,18.58
2023-05-24T22:37:48.817Z,21.83
2023-05-24T22:40:16.166Z,21.13
2023-05-24T22:42:43.482Z,17.40
2023-05-24T22:45:11.252Z,22.13
2023-05-24T22:47:40.181Z,21.33
2023-05-24T22:50:08.473Z,24.05
2023-05-24T22:52:36.776Z,19.33
2023-05-24T22:55:04.070Z,12.30
2023-05-24T22:57:31.668Z,25.80
2023-05-24T22:59:59.155Z,21.40
2023-05-24T23:02:30.012Z,22.65
2023-05-24T23:04:57.553Z,16.00
2023-05-24T23:07:25.439Z,28.50
2023-05-24T23:09:52.961Z,26.80
2023-05-24T23:12:21.284Z,24.38
2023-05-24T23:14:48.806Z,25.83
2023-05-24T23:17:17.421Z,24.60
2023-05-24T23:19:44.900Z,26.45
2023-05-24T23:22:13.203Z,13.60
2023-05-24T23:24:42.777Z,27.73
2023-05-24T23:27:10.214Z,23.65
2023-05-24T23:29:39.322Z,17.05
2023-05-24T23:32:08.444Z,24.50
2023-05-24T23:34:36.527Z,25.35
2023-05-24T23:37:05.440Z,25.45
2023-05-24T23:39:32.843Z,28.77
2023-05-24T23:42:00.121Z,18.92
2023-05-24T23:44:27.257Z,24.33
2023-05-24T23:46:54.852Z,22.77
2023-05-24T23:49:22.351Z,23.63
2023-05-24T23:51:49.577Z,21.10
2023-05-24T23:54:16.827Z,24.83
2023-05-24T23:56:44.040Z,23.35
2023-05-24T23:59:11.446Z,24.52
